Bezig met laden...

Meteo / TAF / Notam

België
  • EBAW - ANTWERPEN / DEURNE
    EBAW 271650Z 08005KT 3500 BR NSC 07/06 Q1018 NOSIG
    TAF EBAW 271410Z 2715/2724 09003KT 4500 BR BKN008 PROB40 TEMPO 2715/2724 6000 NSW SCT008
  • EBBE - BEAUVECHAIN
    EBBE 271655Z AUTO 08003KT 0250 FG OVC002/// 06/06 Q1017 RED
  • EBBL - KLEINE-BROGEL
    EBBL 271703Z AUTO 09005KT 7000 OVC094/// 06/04 Q1018 WHT
  • EBBR - BRUSSELS / BRUSSELS-NATIONAL
    EBBR 271650Z 06003KT 040V100 2000 BR SCT003 06/05 Q1018 TEMPO 1200 BR BKN003
    TAF AMD EBBR 271412Z 2712/2818 09003KT 6000 BKN006 TEMPO 2712/2718 3000 BR TEMPO 2800/2805 2500 BR
  • EBCI - CHARLEROI / BRUSSELS SOUTH
    EBCI 271650Z 05004KT 8000 NSC 07/06 Q1017 TEMPO 5000 BR
    TAF EBCI 271110Z 2712/2818 09004KT CAVOK PROB30 TEMPO 2800/2805 4500 BR
  • EBCV - CHIÈVRES
    EBCV 271655Z AUTO 06003KT //// BKN099/// 07/06 Q1017 BLU
    TAF COR EBCV 271226Z 2713/2722 08005KT 5000 BR SCT010 BECMG 2714/2716 8000 NSW FEW012 BY EBWM
  • EBDT - DIEST / SCHAFFEN
    EBDT 271655Z AUTO 03004KT 0900 FG OVC090/// 06/06 Q1018 AMB
  • EBFN - KOKSIJDE
    EBFN 271655Z AUTO 09005KT 2000 BR OVC007/// 08/08 Q1017 YLO
    TAF EBFN 270841Z 2710/2719 09006KT 6000 SCT020 BKN040 TEMPO 2710/2719 4000 -DZ BR BKN007 OVC015 TEMPO 2710/2719 8000 SCT040
  • EBFS - FLORENNES
    EBFS 271655Z AUTO 08004KT 9999 BKN090/// OVC100/// 07/05 Q1017 BLU
  • EBLB - ELSENBORN
    EBLB 271703Z AUTO VRB01KT 4700 BKN080/// 03/03 Q1018 GRN
  • EBLG - LIÈGE / LIÈGE
    EBLG 271650Z 06006KT 360V110 6000 NSC 07/06 Q1018 TEMPO 4500 BR
    TAF EBLG 271110Z 2712/2818 12003KT CAVOK PROB30 TEMPO 2800/2805 4500 BR
  • EBOS - OOSTENDE-BRUGGE / OOSTENDE
    EBOS 271650Z 09006KT 3800 BR BKN009 08/07 Q1018 TEMPO 2500 BR BKN011
    TAF EBOS 271110Z 2712/2818 09006KT 6000 SCT006 PROB40 2712/2720 2500 BR BKN004 PROB30 TEMPO 2801/2809 2500 BR
Nederland
  • EHAK - A12-CPP HELIPAD OIL 2011
    EHAK 271655Z AUTO VRB05KT 9999 NCD 09/04 Q1020
  • EHAM - AMSTERDAM AIRPORT SCHIPHOL
    EHAM 271655Z 13005KT 3700 BR OVC005 07/06 Q1019 NOSIG
    TAF EHAM 271114Z 2712/2818 09006KT 9999 BKN008 PROB30 TEMPO 2712/2717 4000 -DZ BR BKN004 BECMG 2717/2720 7000 NSC BECMG 2720/2723 4000 BR MIFG BECMG 2723/2801 2000 BCFG PROB40 2800/2810 0600 FG BKN002 BECMG 2809/2811 4000 BR BECMG 2811/2813 8000 NSW
  • EHBK - MAASTRICHT AACHEN AIRPORT
    EHBK 271655Z AUTO 07006KT 040V100 2200 BR OVC001 04/03 Q1018 BECMG BKN002
    TAF EHBK 271114Z 2712/2818 12005KT CAVOK PROB40 2801/2809 4000 BR
  • EHDL - DEELEN AIR BASE
    EHDL 271655Z AUTO 08004KT 030V160 1400 BR NCD 05/05 Q1019 AMB
    TAF EHDL 270954Z 2710/2722 08003KT 4000 BR BKN005 TEMPO 2710/2713 2000 DZRA BR SCT002 BKN004 PROB30 TEMPO 2710/2712 0800 FG BKN001 BECMG 2711/2714 12005KT 8000 FEW008 SCT020 BKN035 BECMG 2718/2720 4000 BR PROB40 2720/2722 2000 BR MIFG
  • EHDV - D15-FA-1 SEA
    EHDV 271655Z AUTO 12015KT 9999 NSC 09/04 Q1019
  • EHEH - EINDHOVEN AIRPORT
    EHEH 271710Z AUTO 07004KT 050V120 9999 OVC094 07/05 Q1018 BLU BECMG 4500 BR
    TAF EHEH 271113Z 2712/2818 11004KT 9000 SCT030 BKN045 PROB30 TEMPO 2712/2714 5000 BR SCT008 BECMG 2717/2720 4000 BR BECMG 2720/2722 2500 BR MIFG PROB40 2723/2806 0800 FG BECMG 2806/2809 3000 BR BECMG 2808/2810 06007KT CAVOK
  • EHFD - F-3 PLATFORM
    EHFD 271655Z AUTO /////KT 9999 // SCT029/// SCT048/// 09/04 Q1019 RE//
  • EHFS - VLISSINGEN
    EHFS 271655Z AUTO 08007KT 3100 BR OVC007/// 08/07 Q1018
  • EHGG - GRONINGEN AIRPORT EELDE
    EHGG 271655Z AUTO 11006KT 070V150 3100 BR SCT009 08/07 Q1019 NOSIG
    TAF EHGG 271126Z 2712/2818 11006KT 7000 BKN006 PROB40 TEMPO 2712/2718 4000 BR -DZ BKN003 BECMG 2717/2720 3000 BR MIFG NSC BECMG 2720/2723 1500 BCFG PROB40 2720/2812 2000 OVC003 BECMG 2800/2803 0600 FG VV001 BECMG 2809/2812 4000 BR BKN007
  • EHGR - GILZE-RIJEN AIR BASE
    EHGR 271710Z AUTO VRB01KT 4700 BR FEW015CB SCT091 OVC096 06/05 Q1018 GRN
    TAF EHGR 270934Z 2710/2722 08004KT 5000 BR BKN015 TEMPO 2710/2717 3500 -DZ BR BKN006 PROB40 TEMPO 2710/2715 2000 DZRA BR SCT003 OVC005 BECMG 2714/2717 SCT020 BECMG 2718/2720 4000 BR BECMG 2720/2722 2500 BR MIFG
  • EHJA - J6-A SEA, NETHERLANDS
    EHJA 271655Z AUTO VRB11KT 9999 FEW022/// 09/04 Q1018
  • EHJR - K13-A PLATFORM
    EHJR 271655Z AUTO 00000KT //// // ///////// 09/04 Q1019 RE// W///H8
  • EHKD - DEN HELDER AIRPORT
    EHKD 271710Z AUTO 11006KT 070V140 5000 BR OVC004 07/06 Q1019 YLO TEMPO SCT003 BKN004 BECMG 3500 BR
    TAF EHKD 271337Z 2714/2802 08005KT 9000 SCT010 BKN012 TEMPO 2714/2721 4000 -DZRA SCT005 BKN008 PROB40 TEMPO 2715/2718 2000 DZRA BR SCT002 BKN005 BECMG 2719/2722 4000 BR FEW008 SCT020 PROB30 TEMPO 2719/2802 BKN004 BECMG 2722/2724 2000 BR MIFG PROB40 2800/2
  • EHKV - K14-FA-1C PLATFORM
    EHKV 271655Z AUTO 12010KT 9999 FEW018 09/04 Q1019
  • EHLE - LELYSTAD AIRPORT
    EHLE 271655Z AUTO 12007KT 2500 BR OVC004 07/06 Q1019 BECMG BKN007
    TAF EHLE 271114Z 2712/2818 09006KT 9999 BKN008 PROB30 TEMPO 2712/2716 4000 -DZ BR BKN004 BECMG 2716/2719 7000 NSC BECMG 2719/2722 4000 BR MIFG BECMG 2722/2724 2000 BCFG PROB40 2723/2810 0600 FG BKN002 BECMG 2809/2811 4000 BR BECMG 2811/2813 8000 NSW PROB3
  • EHLW - LEEUWARDEN AIR BASE
    EHLW 271710Z AUTO 13007KT 090V160 3500 BR OVC003 08/07 Q1019 YLO
    TAF EHLW 271330Z 2714/2802 08005KT 9000 SCT010 BKN012 TEMPO 2714/2720 4000 -DZRA SCT005 BKN008 PROB30 TEMPO 2714/2718 2000 DZRA BR SCT002 BKN004 BECMG 2718/2721 4500 BR NSC BECMG 2722/2724 2000 BR MIFG PROB40 2723/2802 0800 FG BKN002
  • EHMA - AWG-1 PLATFORM
    EHMA 271655Z AUTO 11012KT 3200 BR BKN002 OVC003 08/07 Q1019
  • EHMG - L9-FF-1 PLATFORM
    EHMG 271655Z AUTO 13009KT 9999 SCT009 BKN011 OVC013 09/06 Q1020
  • EHPG - P11-B SEA, NETHERLANDS
    EHPG 271655Z AUTO 08008KT 9999 FEW014 09/05 Q1018
  • EHQE - HOORN-A SEA, NETHERLANDS
    EHQE 271655Z AUTO 08008KT 9999 FEW007 SCT009 BKN010 08/06 Q1018
  • EHRD - ROTTERDAM THE HAGUE AIRPORT
    EHRD 271655Z AUTO 09005KT 4600 BR OVC006 07/06 Q1018 NOSIG
    TAF EHRD 271114Z 2712/2818 09006KT 9999 BKN008 PROB30 TEMPO 2712/2717 4000 -DZ BR BKN004 BECMG 2717/2720 7000 NSC BECMG 2720/2723 4000 BR MIFG BECMG 2723/2801 2000 BCFG PROB40 2800/2810 0600 FG BKN002 BECMG 2809/2811 4000 BR BECMG 2811/2813 8000 NSW
  • EHSA - EURO PLATFORM
    EHSA 271655Z AUTO 09010KT 9999 ///////// 09/07 Q1018 W10/H4
  • EHSC - LICHTEILAND GOEREE
    EHSC 271655Z AUTO 12006KT 7000 ///////// 09/07 Q1018 W11/H3
  • EHVK - VOLKEL AIR BASE
    EHVK 271709Z AUTO 06004KT 050V110 7000 BR OVC092 05/04 Q1019 WHT
    TAF EHVK 271324Z 2714/2802 11004KT 8000 NSC BECMG 2717/2720 4000 BR BECMG 2720/2722 2500 BR MIFG PROB40 2723/2802 0800 FG
  • EHVL - VLIELAND HELIPORT
    EHVL 271715Z AUTO 12006KT 9000 BR SCT006 OVC007 08/06 Q1019 YLO
  • EHWO - WOENSDRECHT AIR BASE
    EHWO 271655Z AUTO 08003KT 3200 BR OVC098 06/06 Q1018 YLO
    TAF EHWO 270939Z 2710/2722 08004KT 4500 BR BKN012 TEMPO 2710/2717 3500 -DZ BR BKN006 PROB40 TEMPO 2710/2715 2000 DZRA BR SCT003 OVC005 BECMG 2715/2718 SCT020 BECMG 2718/2720 4000 BR BECMG 2720/2722 2500 BR MIFG
Luxemburg
  • ELLX - LUXEMBOURG FINDEL AIRPORT
    ELLX 271650Z 05007KT 6000 FEW001 BKN050 04/03 Q1018 NOSIG
    TAF ELLX 271100Z 2712/2818 10006KT 9000 NSC TEMPO 2718/2810 VRB02KT 3500 BR PROB40 TEMPO 2721/2802 0500 FG OVC004 PROB40 TEMPO 2802/2809 0200 FZFG OVC002

Buienradar



Weerbericht - Voorspelling